ΕΜΥ, Εθνική Μετεωρολογική Υπηρεσία - Δελτία Καιρού, Προγνώσεις

ΑΕΡΟΝΑΥΤΙΛΙΑ

GREEK AIRPORTS CODES

LGSR 212220Z 00000KT 9999 SCT018 17/12 Q1015 RMK BKN080=

EUROPEAN AIRPORTS CODES

LFPO 212330Z 02009KT CAVOK 06/01 Q1026 NOSIG=